Latest Weather Observations for Laverton

IDV60801

Issued at 6:02 am EDT Friday 12 February 2016 (issued every 30 minutes, with the page automatically refreshed every 10 minutes)

About weather observations | Map of weather stations | Latest weather observations for VIC | Other Formats
Station Details ID: 087031 Name: LAVERTON RAAF Lat: -37.86 Lon: 144.76 Height: 20.1 m
Data from the previous 72 hours. | See also: Recent months at Laverton
Date/Time
EDT
Temp
°C
App
Temp
°C
Dew
Point
Rel
Hum
%
Delta-T
°C
Wind Press
QNH
hPa
Press
MSL
hPa
Rain
since 9 am
mm
Dir
 
Spd
km/h
Gust
km/h
Spd
kts
Gust
kts
12/06:00am 18.2 17.4 14.1 77 2.3 SSE 11 17 6 9 1016.4 1016.3 0.0
12/05:30am 18.1 17.3 14.0 77 2.3 SSE 11 17 6 9 1016.0 1015.9 0.0
12/05:00am 18.1 16.8 13.8 76 2.4 SSE 13 17 7 9 1015.7 1015.6 0.0
12/04:30am 18.3 17.1 14.0 76 2.5 SSE 13 19 7 10 1016.0 1015.9 0.0
12/04:00am 18.2 17.0 13.9 76 2.5 SSE 13 22 7 12 1016.3 1016.2 0.0
12/03:30am 18.0 16.8 13.9 77 2.3 SSE 13 19 7 10 1016.3 1016.2 0.0
12/03:00am 17.9 16.7 14.0 78 2.2 SSE 13 19 7 10 1016.4 1016.3 0.0
12/02:30am 17.7 16.9 14.0 79 2.1 SSE 11 15 6 8 1016.4 1016.3 0.0
12/02:00am 17.3 16.7 13.6 79 2.1 SSE 9 13 5 7 1016.6 1016.5 0.0
12/01:30am 17.6 16.6 13.5 77 2.3 SSE 11 15 6 8 1016.9 1016.8 0.0
12/01:00am 17.9 17.0 13.6 76 2.4 SSE 11 15 6 8 1017.4 1017.3 0.0
12/12:30am 18.1 16.8 13.8 76 2.5 SSE 13 17 7 9 1017.6 1017.5 0.0
12/12:00am 18.0 17.2 14.1 78 2.2 SE 11 17 6 9 1017.7 1017.6 0.0
 
Date/Time
EDT
Temp
°C
App
Temp
°C
Dew
Point
Rel
Hum
%
Delta-T
°C
Wind Press
QNH
hPa
Press
MSL
hPa
Rain
since 9 am
mm
Dir
 
Spd
km/h
Gust
km/h
Spd
kts
Gust
kts
11/11:30pm 18.4 16.9 14.1 76 2.5 SE 15 22 8 12 1017.9 1017.8 0.0
11/11:00pm 18.6 16.7 14.1 75 2.6 SE 17 22 9 12 1017.9 1017.8 0.0
11/10:30pm 18.8 16.3 13.6 72 3.0 SSE 19 26 10 14 1018.1 1018.0 0.0
11/10:00pm 19.0 16.8 13.2 69 3.3 SE 17 22 9 12 1017.9 1017.8 0.0
11/09:30pm 19.5 17.3 13.2 67 3.6 SSE 17 24 9 13 1017.5 1017.4 0.0
11/09:00pm 19.6 17.3 14.2 71 3.1 SSE 19 26 10 14 1016.8 1016.7 0.0
11/08:30pm 19.7 17.4 14.1 70 3.2 SSE 19 28 10 15 1016.4 1016.3 0.0
11/08:00pm 20.1 16.9 14.2 69 3.4 SSE 24 37 13 20 1016.3 1016.2 0.0
11/07:30pm 20.7 17.6 14.4 67 3.7 S 24 32 13 17 1016.1 1016.0 0.0
11/07:00pm 21.1 16.6 13.8 63 4.2 S 30 37 16 20 1015.9 1015.8 0.0
11/06:30pm 21.6 17.8 14.7 65 4.1 S 28 35 15 19 1015.5 1015.4 0.0
11/06:00pm 22.4 19.2 14.3 60 4.7 S 24 33 13 18 1015.4 1015.3 0.0
11/05:30pm 22.5 18.6 13.3 56 5.3 S 26 33 14 18 1015.3 1015.2 0.0
11/05:00pm 23.3 19.0 13.2 53 5.8 S 28 37 15 20 1015.4 1015.3 0.0
11/04:30pm 23.8 19.6 13.6 52 5.9 S 28 43 15 23 1015.5 1015.4 0.0
11/04:00pm 23.6 19.7 13.2 52 6.0 S 26 35 14 19 1015.4 1015.3 0.0
11/03:30pm 24.0 20.5 13.5 52 6.1 S 24 35 13 19 1015.3 1015.2 0.0
11/03:00pm 23.3 19.9 13.8 55 5.5 S 24 33 13 18 1015.4 1015.3 0.0
11/02:30pm 23.3 19.8 13.5 54 5.7 S 24 35 13 19 1015.7 1015.6 0.0
11/02:00pm 23.5 20.6 12.8 51 6.1 S 20 28 11 15 1015.9 1015.8 0.0
11/01:30pm 23.0 20.4 13.8 56 5.4 S 20 28 11 15 1016.0 1015.9 0.0
11/01:00pm 22.5 20.3 13.3 56 5.3 SSE 17 24 9 13 1016.1 1016.0 0.0
11/12:30pm 22.5 20.5 12.7 54 5.6 SE 15 24 8 13 1016.6 1016.5 0.0
11/12:00pm 22.7 20.0 12.9 54 5.6 SSE 19 30 10 16 1017.0 1016.9 0.0
11/11:30am 21.3 18.4 12.2 56 5.1 SSE 19 24 10 13 1017.4 1017.3 0.0
11/11:00am 22.0 19.9 13.6 59 4.9 SE 17 24 9 13 1017.5 1017.4 0.0
11/10:30am 21.1 18.8 13.0 60 4.6 SE 17 30 9 16 1017.5 1017.4 0.0
11/10:00am 20.7 18.1 12.1 58 4.8 SE 17 24 9 13 1017.5 1017.4 0.0
11/09:30am 20.2 17.4 12.7 62 4.2 SE 19 24 10 13 1017.5 1017.4 0.0
11/09:00am 20.1 17.5 13.1 64 4.0 SSE 19 26 10 14 1017.5 1017.4 0.0
11/08:30am 19.2 17.0 13.4 69 3.3 SE 17 24 9 13 1017.2 1017.1 0.0
11/08:00am 18.9 16.6 12.9 68 3.4 SSE 17 22 9 12 1017.1 1017.0 0.0
11/07:30am 18.7 17.4 13.6 72 2.9 SSE 13 17 7 9 1016.9 1016.8 0.0
11/07:00am 18.7 17.8 13.6 72 2.9 SE 11 17 6 9 1016.5 1016.4 0.0
11/06:30am 18.7 18.1 13.6 72 2.9 SSE 9 13 5 7 1016.2 1016.1 0.0
11/06:00am 18.7 17.6 13.1 70 3.2 SSE 11 15 6 8 1015.9 1015.8 0.0
11/05:30am 18.7 17.2 13.1 70 3.2 SSE 13 17 7 9 1015.7 1015.6 0.0
11/05:00am 18.7 17.4 13.6 72 2.9 SSE 13 20 7 11 1015.5 1015.4 0.0
11/04:30am 18.7 17.4 13.8 73 2.8 SSE 13 19 7 10 1015.4 1015.3 0.0
11/04:00am 18.7 17.8 13.6 72 2.9 SSE 11 17 6 9 1015.4 1015.3 0.0
11/03:30am 18.8 17.9 13.6 72 3.0 SSE 11 15 6 8 1015.4 1015.3 0.0
11/03:00am 18.8 17.8 13.4 71 3.1 SSE 11 15 6 8 1015.6 1015.5 0.0
11/02:30am 18.8 17.9 13.6 72 3.0 S 11 15 6 8 1015.8 1015.7 0.0
11/02:00am 18.7 17.8 13.6 72 2.9 SSE 11 15 6 8 1016.1 1016.0 0.0
11/01:30am 18.8 18.0 13.9 73 2.8 SSE 11 17 6 9 1016.3 1016.2 0.0
11/01:00am 18.9 17.6 13.7 72 3.0 S 13 17 7 9 1016.5 1016.4 0.0
11/12:30am 18.8 17.6 13.9 73 2.8 SSE 13 19 7 10 1016.6 1016.5 0.0
11/12:00am 18.7 17.5 14.0 74 2.7 S 13 17 7 9 1016.6 1016.5 0.0
 
Date/Time
EDT
Temp
°C
App
Temp
°C
Dew
Point
Rel
Hum
%
Delta-T
°C
Wind Press
QNH
hPa
Press
MSL
hPa
Rain
since 9 am
mm
Dir
 
Spd
km/h
Gust
km/h
Spd
kts
Gust
kts
10/11:30pm 18.7 17.9 14.0 74 2.7 SSE 11 17 6 9 1016.7 1016.6 0.0
10/11:00pm 18.4 17.6 14.1 76 2.5 SSE 11 17 6 9 1016.8 1016.7 0.0
10/10:30pm 18.4 17.2 14.1 76 2.5 SSE 13 19 7 10 1016.8 1016.7 0.0
10/10:00pm 18.5 17.0 14.2 76 2.5 S 15 20 8 11 1016.6 1016.5 0.0
10/09:30pm 18.5 16.5 13.8 74 2.7 S 17 24 9 13 1016.2 1016.1 0.0
10/09:00pm 18.7 16.1 13.8 73 2.8 S 20 28 11 15 1015.9 1015.8 0.0
10/08:30pm 18.9 16.4 14.0 73 2.8 S 20 30 11 16 1015.6 1015.5 0.0
10/08:00pm 19.3 16.3 13.7 70 3.2 S 22 32 12 17 1015.4 1015.3 0.0
10/07:30pm 20.2 17.6 13.9 67 3.6 S 20 28 11 15 1015.0 1014.9 0.0
10/07:00pm 21.0 18.6 13.7 63 4.2 S 19 28 10 15 1014.8 1014.7 0.0
10/06:30pm 21.4 19.0 13.8 62 4.4 S 19 26 10 14 1014.6 1014.5 0.0
10/06:00pm 21.9 19.4 13.5 59 4.8 SSE 19 26 10 14 1014.4 1014.3 0.0
10/05:30pm 23.2 21.3 14.2 57 5.3 SSE 17 24 9 13 1014.3 1014.2 0.0
10/05:00pm 22.9 20.5 13.7 56 5.4 SSE 19 28 10 15 1014.3 1014.2 0.0
10/04:30pm 23.3 20.8 13.5 54 5.7 S 19 26 10 14 1014.2 1014.1 0.0
10/04:00pm 22.7 20.1 13.7 56 5.2 S 20 28 11 15 1014.5 1014.4 0.0
10/03:30pm 23.7 21.1 13.3 52 6.0 S 19 26 10 14 1014.6 1014.5 0.0
10/03:00pm 23.9 21.8 13.7 53 6.0 S 17 28 9 15 1014.8 1014.7 0.0
10/02:30pm 22.6 19.9 13.4 56 5.3 S 20 28 11 15 1015.1 1015.0 0.0
10/02:00pm 22.3 19.9 13.9 59 4.9 SSE 19 26 10 14 1015.3 1015.2 0.0
10/01:30pm 22.3 20.3 13.9 59 4.9 SSE 17 28 9 15 1015.4 1015.3 0.0
10/01:00pm 22.7 20.6 13.7 56 5.2 SSE 17 26 9 14 1015.5 1015.4 0.0
10/12:30pm 22.0 20.3 13.6 59 4.9 SE 15 24 8 13 1015.8 1015.7 0.0
10/12:00pm 21.9 19.4 13.5 59 4.8 SE 19 26 10 14 1016.1 1016.0 0.0
10/11:30am 21.4 20.1 13.6 61 4.5 SSE 13 20 7 11 1016.2 1016.1 0.0
10/11:00am 21.9 21.2 14.3 62 4.4 S 11 17 6 9 1016.3 1016.2 0.0
10/10:30am 20.8 20.6 13.5 63 4.2 NE 7 9 4 5 1016.4 1016.3 0.0
10/10:00am 20.1 19.9 13.6 66 3.7 SE 7 13 4 7 1016.4 1016.3 0.0
10/09:30am 19.3 18.8 13.7 70 3.2 SSW 9 15 5 8 1016.5 1016.4 0.0
10/09:00am 19.1 17.9 13.9 72 3.0 S 13 19 7 10 1016.5 1016.4 0.0
10/08:30am 18.8 18.0 14.1 74 2.7 SW 11 19 6 10 1016.2 1016.1 0.0
10/08:00am 18.7 18.2 13.8 73 2.8 WSW 9 13 5 7 1015.9 1015.8 0.0
10/07:30am 18.4 17.9 13.7 74 2.7 WSW 9 13 5 7 1015.5 1015.4 0.0
10/07:00am 18.2 17.3 13.7 75 2.6 SW 11 13 6 7 1015.4 1015.3 0.0
10/06:30am 18.2 17.4 13.9 76 2.5 SW 11 13 6 7 1015.2 1015.1 0.0
10/06:00am 18.2 18.1 13.9 76 2.5 WSW 7 9 4 5 1014.9 1014.8 0.0
10/05:30am 18.2 18.4 14.1 77 2.4 SW 6 9 3 5 1014.8 1014.7 0.0
10/05:00am 18.2 18.3 13.9 76 2.5 S 6 9 3 5 1015.0 1014.9 0.0
10/04:30am 18.1 17.7 14.0 77 2.3 SW 9 13 5 7 1015.3 1015.2 0.0
10/04:00am 18.1 17.4 14.2 78 2.2 SW 11 15 6 8 1015.6 1015.5 0.0
10/03:30am 18.0 17.3 14.3 79 2.1 SW 11 15 6 8 1015.5 1015.4 0.0
10/03:00am 17.8 17.5 14.5 81 1.9 SW 9 11 5 6 1015.6 1015.5 0.0
10/02:30am 17.4 17.8 14.7 84 1.6 SW 6 9 3 5 1015.9 1015.8 0.0
10/02:00am 17.3 17.2 14.9 86 1.4 WSW 9 13 5 7 1016.2 1016.1 0.0
10/01:30am 16.8 16.9 14.4 86 1.4 SW 7 9 4 5 1016.5 1016.4 0.0
10/01:00am 17.1 17.3 14.6 85 1.4 S 7 9 4 5 1016.8 1016.7 0.0
10/12:30am 17.4 16.9 14.9 85 1.4 S 11 15 6 8 1016.9 1016.8 0.0
10/12:12am 17.6 17.1 15.0 85 1.5 S 11 13 6 7 1016.9 1016.8 0.0
10/12:00am 17.7 17.2 15.0 84 1.6 S 11 15 6 8 1016.9 1016.8 0.0
 
Date/Time
EDT
Temp
°C
App
Temp
°C
Dew
Point
Rel
Hum
%
Delta-T
°C
Wind Press
QNH
hPa
Press
MSL
hPa
Rain
since 9 am
mm
Dir
 
Spd
km/h
Gust
km/h
Spd
kts
Gust
kts
09/11:30pm 18.2 17.5 15.5 84 1.6 S 13 17 7 9 1017.3 1017.2 0.0
09/11:12pm 18.3 17.7 15.6 84 1.6 S 13 17 7 9 1017.4 1017.3 0.0
09/11:00pm 18.1 17.0 15.4 84 1.6 SSW 15 19 8 10 1017.5 1017.4 0.0
09/10:30pm 18.2 17.5 15.3 83 1.7 S 13 17 7 9 1017.7 1017.6 0.0
09/10:00pm 18.4 17.2 15.1 81 1.9 S 15 20 8 11 1017.6 1017.5 0.0
09/09:30pm 18.5 17.6 14.8 79 2.2 S 13 19 7 10 1017.5 1017.4 0.0
09/09:00pm 18.8 17.5 14.9 78 2.3 S 15 22 8 12 1017.4 1017.3 0.0
09/08:30pm 19.2 17.1 14.7 75 2.6 S 19 26 10 14 1017.5 1017.4 0.0
09/08:00pm 19.8 17.0 14.4 71 3.1 SSW 22 28 12 15 1017.5 1017.4 0.0
09/07:30pm 20.5 17.7 14.4 68 3.6 S 22 28 12 15 1017.4 1017.3 0.0
09/07:00pm 20.8 17.6 14.2 66 3.8 S 24 30 13 16 1017.4 1017.3 0.0
09/06:30pm 21.6 18.8 14.3 63 4.3 S 22 32 12 17 1017.1 1017.0 0.0
09/06:00pm 22.0 19.2 14.4 62 4.5 SSE 22 30 12 16 1017.0 1016.9 0.0
09/05:30pm 22.6 19.4 14.2 59 4.9 S 24 33 13 18 1017.3 1017.2 0.0
09/05:00pm 22.7 19.8 14.0 58 5.1 SSE 22 30 12 16 1017.7 1017.6 0.0
09/04:30pm 23.2 20.7 14.2 57 5.3 S 20 26 11 14 1017.9 1017.8 0.0
09/04:00pm 23.8 21.4 13.9 54 5.8 S 19 28 10 15 1018.2 1018.1 0.0
09/03:30pm 23.6 22.0 14.0 55 5.6 S 15 22 8 12 1018.5 1018.4 0.0
09/03:00pm 23.4 21.6 13.3 53 5.8 SSE 15 24 8 13 1018.9 1018.8 0.0
09/02:30pm 23.3 21.6 13.5 54 5.7 SSE 15 22 8 12 1019.3 1019.2 0.0
09/02:00pm 23.0 21.1 14.3 58 5.1 S 17 26 9 14 1019.6 1019.5 0.0
09/01:30pm 22.5 20.8 13.6 57 5.2 SSE 15 20 8 11 1019.9 1019.8 0.0
09/01:00pm 21.9 19.7 13.3 58 4.9 SSE 17 24 9 13 1020.3 1020.2 0.0
09/12:30pm 21.8 20.3 13.2 58 4.9 SSE 13 22 7 12 1020.7 1020.6 0.0
09/12:00pm 20.9 18.6 13.1 61 4.4 SE 17 28 9 15 1021.1 1021.0 0.0
09/11:30am 20.6 18.7 13.1 62 4.3 SSE 15 22 8 12 1021.4 1021.3 0.0
09/11:00am 20.5 18.6 13.0 62 4.2 SE 15 20 8 11 1021.5 1021.4 0.0
09/10:30am 19.8 18.3 13.0 65 3.9 SE 13 19 7 10 1021.6 1021.5 0.0
09/10:00am 19.4 17.8 12.7 65 3.8 SE 13 20 7 11 1021.7 1021.6 0.0
09/09:30am 19.1 17.8 12.6 66 3.6 S 11 17 6 9 1021.9 1021.8 0.0
09/09:00am 19.1 17.8 12.6 66 3.6 SE 11 17 6 9 1022.0 1021.9 0.0
09/08:30am 18.3 16.5 12.1 67 3.4 SSE 13 17 7 9 1022.0 1021.9 -
09/08:00am 18.2 17.6 12.4 69 3.2 SE 7 11 4 6 1021.9 1021.8 -
09/07:30am 17.8 16.7 12.0 69 3.2 SE 9 13 5 7 1021.8 1021.7 -
09/07:00am 17.6 16.2 12.1 70 3.0 SSE 11 15 6 8 1021.5 1021.4 -
09/06:30am 17.7 15.8 11.7 68 3.3 SSE 13 19 7 10 1021.6 1021.5 -

Other Formats:

Comma delimited format used in spreadsheet applications
http://www.bom.gov.au/fwo/IDV60801/IDV60801.94865.axf

JavaScript Object Notation format (JSON) in row-major order
http://www.bom.gov.au/fwo/IDV60801/IDV60801.94865.json